Killeen, TX

6:29 PM CST on March 01, 2015 (GMT -0600)
Skylark Field | Change Station
CLOSE
Current Station
Airport
Location: Killeen,
Elevation: 846 ft
Nearby Weather Stations

Elev 846 ft 31.09 °N, 97.69 °W | Updated 14 minutes ago

Overcast
Overcast
39 °F
Feels Like 32 °F
N
10
Wind Variable Wind from North

Today
High -- | Low -- °F
--% Chance of Precip.
Yesterday
High -- | Low -- °F
Precip. -- in
6:58 AM 6:30 PM
Waxing Gibbous, 88% visible
Pressure 30.24 in
Visibility 2.5 miles
Clouds Overcast 300 ft
Windchill 32 °F
Dew Point 34 °F
Humidity 81%
Rainfall 0.15 in
Snow Depth Not available.
UV 0 out of 12
Pollen 8.10 out of 12
Air Quality Not available.
Flu Activity Not available.
METAR KILE 020015Z AUTO 35009KT 2 1/2SM OVC003 04/01 A3024 RMK AO1

More Conditions Fewer Conditions

Pressure 30.24 in
Visibility 2.5 miles
Clouds Overcast 300 ft
Windchill 32 °F
Dew Point 34 °F
Humidity 81%
Rainfall 0.15 in
Snow Depth Not available.
UV 0 out of 12
Pollen 8.10 out of 12
Air Quality Not available.
Flu Activity Not available.
METAR KILE 020015Z AUTO 35009KT 2 1/2SM OVC003 04/01 A3024 RMK AO1

More Conditions Fewer Conditions

Nowcast | as of 5:47 PM CST on March 1, 2015

Scattered areas of light rain and drizzle will redevelop through mid evening...as another upper level impulse moves northeast toward North Texas. Patchy light fog is also expected to redevlop later this evening. Rainfall amounts will be very light and average a trace to a few hundredths...with isolated higher amounts with isolated and heavier showers. Otherwise...temperatures will range from the lower and mid 30s where any snow pack remains to the upper 30s and lower 40s elsewhere. North winds of 10 to 15 mph will continue with wind chills averaging from the 20s northwest to the 30s southeast.

×

10-Day Weather Forecast

Almanac

Astronomy

Mar. 01, 2015 Rise Set
Actual Time
Civil Twilight
Nautical Twilight
Astronomical Twilight
Moon
Length of Visible Light
Length of Day
Tomorrow will be .
, % of the Moon is Illuminated

Today's Extremes

State Highs State Lows

Community

WunderPhotos

Upload Photos

1,801,647 photos uploaded!

WunderBlogs® & News

Nearby

Air Quality

  Air Quality AQ Index Pollutant
Not available.

Snow Depth

Station Depth Elevation

Earthquake Activity

City Distance Mag. Time & Date
Minimum magnitude displayed is 2.5.

Coastal Water Temperatures

Place Temperature

Nearby Weather Stations